createdAt,value
2018-05-09T00:01:13.860Z,3.00
2018-05-09T00:03:41.324Z,2.80
2018-05-09T00:06:08.765Z,2.80
2018-05-09T00:08:36.225Z,3.27
2018-05-09T00:11:03.684Z,2.93
2018-05-09T00:13:31.150Z,2.90
2018-05-09T00:15:58.615Z,2.77
2018-05-09T00:18:26.064Z,3.20
2018-05-09T00:20:53.526Z,3.20
2018-05-09T00:23:20.964Z,2.90
2018-05-09T00:25:49.165Z,3.10
2018-05-09T00:28:16.599Z,3.50
2018-05-09T00:30:44.055Z,3.30
2018-05-09T00:33:11.532Z,3.30
2018-05-09T00:35:38.970Z,3.20
2018-05-09T00:38:06.627Z,3.40
2018-05-09T00:40:34.094Z,3.10
2018-05-09T00:43:01.545Z,3.37
2018-05-09T00:45:29.024Z,3.20
2018-05-09T00:47:56.477Z,3.03
2018-05-09T00:50:23.916Z,3.20
2018-05-09T00:52:51.406Z,2.90
2018-05-09T00:55:18.864Z,3.20
2018-05-09T00:57:46.388Z,3.00
2018-05-09T01:00:13.742Z,3.20
2018-05-09T01:02:41.200Z,3.20
2018-05-09T01:05:08.655Z,3.40
2018-05-09T01:07:36.102Z,3.30
2018-05-09T01:10:03.575Z,3.57
2018-05-09T01:12:31.028Z,3.43
2018-05-09T01:14:58.473Z,3.20
2018-05-09T01:17:25.934Z,3.57
2018-05-09T01:19:53.399Z,3.00
2018-05-09T01:22:20.846Z,3.13
2018-05-09T01:24:48.302Z,3.73
2018-05-09T01:27:15.779Z,3.30
2018-05-09T01:29:43.236Z,2.80
2018-05-09T01:32:10.685Z,3.27
2018-05-09T01:34:38.152Z,3.20
2018-05-09T01:37:05.601Z,3.23
2018-05-09T01:39:33.070Z,3.20
2018-05-09T01:42:00.532Z,3.23
2018-05-09T01:44:27.997Z,3.40
2018-05-09T01:46:55.433Z,3.43
2018-05-09T01:49:22.885Z,3.40
2018-05-09T01:51:50.337Z,3.40
2018-05-09T01:54:17.802Z,3.80
2018-05-09T01:56:45.260Z,3.40
2018-05-09T01:59:12.706Z,3.53
2018-05-09T02:01:40.195Z,3.63
2018-05-09T02:04:07.637Z,3.47
2018-05-09T02:06:35.117Z,3.37
2018-05-09T02:09:02.576Z,3.30
2018-05-09T02:11:29.991Z,3.57
2018-05-09T02:13:57.449Z,3.40
2018-05-09T02:16:24.884Z,3.50
2018-05-09T02:18:52.362Z,3.30
2018-05-09T02:21:19.832Z,3.57
2018-05-09T02:23:47.280Z,3.60
2018-05-09T02:26:14.738Z,3.27
2018-05-09T02:28:42.219Z,3.20
2018-05-09T02:31:09.728Z,3.37
2018-05-09T02:33:37.121Z,3.90
2018-05-09T02:36:04.577Z,4.07
2018-05-09T02:38:32.043Z,3.53
2018-05-09T02:40:59.488Z,3.70
2018-05-09T02:43:26.939Z,3.57
2018-05-09T02:45:54.403Z,3.70
2018-05-09T02:48:21.853Z,3.57
2018-05-09T02:50:49.307Z,3.30
2018-05-09T02:53:16.763Z,4.03
2018-05-09T02:55:44.181Z,3.70
2018-05-09T02:58:11.625Z,4.00
2018-05-09T03:00:39.076Z,3.50
2018-05-09T03:03:06.516Z,3.70
2018-05-09T03:05:33.953Z,3.70
2018-05-09T03:08:01.409Z,4.10
2018-05-09T03:10:28.849Z,4.10
2018-05-09T03:12:56.306Z,3.23
2018-05-09T03:15:23.753Z,3.40
2018-05-09T03:17:51.233Z,3.63
2018-05-09T03:20:18.711Z,3.80
2018-05-09T03:22:46.105Z,3.77
2018-05-09T03:25:14.325Z,3.97
2018-05-09T03:27:41.750Z,3.60
2018-05-09T03:30:09.196Z,3.70
2018-05-09T03:32:36.625Z,3.93
2018-05-09T03:35:04.079Z,3.70
2018-05-09T03:37:31.555Z,4.00
2018-05-09T03:39:58.971Z,3.63
2018-05-09T03:42:26.425Z,3.87
2018-05-09T03:44:53.882Z,3.83
2018-05-09T03:47:21.343Z,3.50
2018-05-09T03:49:48.798Z,3.80
2018-05-09T03:52:16.257Z,4.50
2018-05-09T03:54:43.693Z,3.73
2018-05-09T03:57:11.153Z,3.90
2018-05-09T03:59:38.585Z,4.23
2018-05-09T04:02:17.812Z,3.80
2018-05-09T04:04:57.000Z,4.00
2018-05-09T04:07:36.417Z,4.23
2018-05-09T04:10:04.716Z,4.10
2018-05-09T04:12:32.165Z,4.33
2018-05-09T04:14:59.608Z,4.60
2018-05-09T04:17:27.080Z,4.57
2018-05-09T04:19:54.531Z,4.53
2018-05-09T04:22:21.977Z,4.43
2018-05-09T04:24:49.419Z,4.10
2018-05-09T04:27:16.870Z,4.23
2018-05-09T04:29:44.326Z,4.40
2018-05-09T04:32:11.758Z,4.60
2018-05-09T04:34:39.964Z,4.00
2018-05-09T04:37:07.505Z,4.07
2018-05-09T04:39:34.965Z,3.90
2018-05-09T04:42:02.611Z,4.00
2018-05-09T04:44:29.953Z,4.40
2018-05-09T04:46:58.162Z,4.03
2018-05-09T04:49:25.623Z,4.57
2018-05-09T04:51:53.053Z,4.40
2018-05-09T04:54:20.481Z,4.37
2018-05-09T04:56:47.969Z,4.30
2018-05-09T04:59:15.437Z,4.60
2018-05-09T05:01:42.865Z,4.07
2018-05-09T05:04:10.314Z,4.30
2018-05-09T05:06:37.767Z,4.20
2018-05-09T05:09:05.219Z,3.70
2018-05-09T05:11:32.688Z,4.00
2018-05-09T05:14:00.189Z,3.97
2018-05-09T05:16:27.614Z,4.10
2018-05-09T05:18:55.069Z,3.97
2018-05-09T05:21:23.290Z,4.00
2018-05-09T05:23:50.735Z,4.40
2018-05-09T05:26:18.179Z,5.00
2018-05-09T05:28:45.646Z,4.03
2018-05-09T05:31:13.089Z,4.20
2018-05-09T05:33:40.529Z,3.90
2018-05-09T05:36:07.977Z,3.93
2018-05-09T05:38:35.432Z,3.80
2018-05-09T05:41:02.883Z,4.20
2018-05-09T05:43:30.337Z,3.80
2018-05-09T05:45:57.780Z,3.53
2018-05-09T05:48:25.232Z,3.70
2018-05-09T05:50:52.679Z,4.53
2018-05-09T05:53:20.895Z,4.10
2018-05-09T05:55:49.091Z,3.40
2018-05-09T05:58:16.537Z,3.90
2018-05-09T06:00:44.741Z,4.13
2018-05-09T06:03:12.181Z,3.90
2018-05-09T06:05:39.625Z,3.53
2018-05-09T06:08:07.062Z,4.10
2018-05-09T06:10:34.514Z,3.90
2018-05-09T06:13:01.950Z,3.80
2018-05-09T06:15:29.409Z,3.80
2018-05-09T06:17:56.891Z,4.00
2018-05-09T06:20:24.320Z,3.60
2018-05-09T06:22:51.770Z,4.00
2018-05-09T06:25:19.220Z,3.60
2018-05-09T06:27:46.659Z,3.60
2018-05-09T06:30:14.110Z,3.93
2018-05-09T06:32:41.571Z,3.73
2018-05-09T06:35:09.029Z,3.70
2018-05-09T06:37:36.546Z,3.80
2018-05-09T06:40:03.914Z,3.70
2018-05-09T06:42:31.380Z,3.83
2018-05-09T06:44:58.818Z,3.67
2018-05-09T06:47:27.039Z,3.93
2018-05-09T06:49:54.558Z,3.40
2018-05-09T06:52:21.958Z,3.93
2018-05-09T06:54:49.388Z,3.93
2018-05-09T06:57:16.851Z,4.00
2018-05-09T06:59:44.293Z,3.90
2018-05-09T07:02:11.787Z,4.00
2018-05-09T07:04:39.217Z,3.97
2018-05-09T07:07:06.689Z,3.70
2018-05-09T07:09:34.173Z,4.20
2018-05-09T07:12:01.634Z,3.80
2018-05-09T07:14:29.090Z,4.10
2018-05-09T07:16:56.543Z,3.80
2018-05-09T07:19:23.991Z,3.93
2018-05-09T07:21:51.434Z,4.00
2018-05-09T07:24:18.880Z,4.47
2018-05-09T07:26:46.321Z,3.77
2018-05-09T07:29:13.776Z,3.73
2018-05-09T07:31:41.241Z,3.60
2018-05-09T07:34:08.696Z,3.30
2018-05-09T07:36:36.165Z,3.30
2018-05-09T07:39:05.070Z,3.50
2018-05-09T07:41:33.273Z,3.93
2018-05-09T07:44:00.744Z,3.37
2018-05-09T07:46:28.193Z,3.60
2018-05-09T07:48:55.635Z,3.67
2018-05-09T07:51:23.104Z,3.50
2018-05-09T07:53:50.530Z,3.63
2018-05-09T07:56:17.996Z,3.47
2018-05-09T07:58:45.445Z,3.67
2018-05-09T08:01:13.822Z,3.50
2018-05-09T08:03:41.275Z,3.80
2018-05-09T08:06:08.754Z,3.60
2018-05-09T08:08:36.181Z,3.73
2018-05-09T08:11:04.402Z,3.50
2018-05-09T08:13:31.849Z,3.33
2018-05-09T08:15:59.302Z,3.90
2018-05-09T08:18:27.110Z,3.30
2018-05-09T08:20:54.529Z,3.37
2018-05-09T08:23:21.987Z,3.60
2018-05-09T08:25:49.434Z,3.73
2018-05-09T08:28:16.890Z,3.97
2018-05-09T08:30:44.353Z,3.30
2018-05-09T08:33:11.777Z,3.53
2018-05-09T08:35:40.190Z,3.50
2018-05-09T08:38:07.609Z,3.47
2018-05-09T08:40:35.072Z,3.70
2018-05-09T08:43:02.634Z,4.87
2018-05-09T08:45:30.862Z,3.80
2018-05-09T08:47:58.306Z,3.40
2018-05-09T08:50:25.757Z,3.27
2018-05-09T08:52:53.204Z,2.93
2018-05-09T08:55:20.737Z,3.10
2018-05-09T08:57:48.320Z,3.72
2018-05-09T09:00:15.858Z,3.80
2018-05-09T09:02:43.227Z,3.83
2018-05-09T09:05:10.697Z,3.25
2018-05-09T09:07:38.159Z,3.97
2018-05-09T09:10:05.593Z,3.40
2018-05-09T09:12:33.042Z,3.25
2018-05-09T09:15:00.489Z,3.40
2018-05-09T09:17:27.974Z,3.33
2018-05-09T09:19:55.430Z,3.30
2018-05-09T09:22:22.888Z,3.70
2018-05-09T09:24:50.367Z,3.10
2018-05-09T09:27:17.817Z,3.30
2018-05-09T09:29:45.259Z,3.37
2018-05-09T09:32:13.625Z,3.55
2018-05-09T09:34:41.070Z,3.40
2018-05-09T09:37:09.289Z,3.33
2018-05-09T09:39:36.740Z,3.45
2018-05-09T09:42:04.182Z,3.58
2018-05-09T09:44:31.637Z,3.60
2018-05-09T09:46:59.104Z,3.33
2018-05-09T09:49:26.549Z,3.35
2018-05-09T09:51:54.012Z,3.50
2018-05-09T09:54:21.467Z,3.62
2018-05-09T09:56:48.941Z,3.45
2018-05-09T09:59:16.378Z,3.12
2018-05-09T10:01:43.837Z,3.40
2018-05-09T10:04:11.282Z,3.47
2018-05-09T10:06:38.749Z,3.30
2018-05-09T10:09:06.208Z,3.35
2018-05-09T10:11:33.654Z,3.28
2018-05-09T10:14:01.115Z,3.08
2018-05-09T10:16:28.565Z,3.30
2018-05-09T10:18:56.022Z,3.55
2018-05-09T10:21:23.489Z,3.30
2018-05-09T10:23:50.933Z,3.60
2018-05-09T10:26:18.389Z,2.97
2018-05-09T10:28:45.845Z,3.40
2018-05-09T10:31:13.324Z,3.75
2018-05-09T10:33:40.785Z,3.67
2018-05-09T10:36:08.245Z,3.72
2018-05-09T10:38:35.722Z,3.67
2018-05-09T10:41:03.173Z,3.37
2018-05-09T10:43:30.596Z,3.45
2018-05-09T10:45:58.087Z,3.65
2018-05-09T10:48:25.525Z,3.55
2018-05-09T10:50:53.002Z,3.53
2018-05-09T10:53:20.425Z,3.33
2018-05-09T10:55:47.884Z,3.70
2018-05-09T10:58:15.337Z,3.80
2018-05-09T11:00:42.809Z,3.58
2018-05-09T11:03:10.265Z,3.37
2018-05-09T11:05:37.722Z,3.60
2018-05-09T11:08:05.184Z,3.60
2018-05-09T11:10:32.676Z,3.20
2018-05-09T11:13:00.091Z,3.25
2018-05-09T11:15:27.653Z,3.65
2018-05-09T11:17:55.091Z,3.47
2018-05-09T11:20:22.543Z,3.58
2018-05-09T11:22:50.855Z,3.30
2018-05-09T11:25:18.298Z,3.45
2018-05-09T11:27:45.753Z,3.60
2018-05-09T11:30:13.213Z,3.55
2018-05-09T11:32:40.665Z,3.75
2018-05-09T11:35:08.124Z,4.22
2018-05-09T11:37:35.572Z,3.85
2018-05-09T11:40:03.057Z,3.33
2018-05-09T11:42:30.497Z,3.30
2018-05-09T11:44:58.549Z,3.50
2018-05-09T11:47:26.661Z,3.47
2018-05-09T11:49:54.117Z,3.25
2018-05-09T11:52:21.585Z,3.53
2018-05-09T11:54:49.045Z,3.53
2018-05-09T11:57:16.501Z,3.92
2018-05-09T11:59:43.957Z,4.30
2018-05-09T12:02:11.425Z,3.87
2018-05-09T12:04:38.877Z,4.20
2018-05-09T12:07:06.338Z,3.80
2018-05-09T12:09:33.785Z,4.03
2018-05-09T12:12:01.245Z,3.58
2018-05-09T12:14:28.713Z,4.07
2018-05-09T12:16:56.157Z,4.32
2018-05-09T12:19:23.644Z,3.60
2018-05-09T12:21:51.968Z,3.60
2018-05-09T12:24:19.425Z,4.30
2018-05-09T12:26:47.573Z,3.58
2018-05-09T12:29:15.005Z,3.80
2018-05-09T12:31:42.550Z,3.58
2018-05-09T12:34:09.908Z,5.37
2018-05-09T12:36:37.356Z,4.05
2018-05-09T12:39:04.817Z,4.37
2018-05-09T12:41:32.284Z,4.80
2018-05-09T12:43:59.728Z,3.80
2018-05-09T12:46:27.299Z,3.80
2018-05-09T12:48:54.816Z,3.90
2018-05-09T12:51:22.173Z,3.80
2018-05-09T12:53:49.629Z,3.47
2018-05-09T12:56:17.076Z,4.00
2018-05-09T12:58:44.539Z,3.40
2018-05-09T13:01:11.984Z,4.00
2018-05-09T13:03:40.205Z,3.75
2018-05-09T13:06:07.654Z,3.97
2018-05-09T13:08:35.116Z,4.53
2018-05-09T13:11:02.569Z,3.42
2018-05-09T13:13:30.018Z,3.53
2018-05-09T13:15:57.480Z,3.65
2018-05-09T13:18:24.920Z,3.72
2018-05-09T13:20:52.420Z,3.62
2018-05-09T13:23:19.851Z,4.15
2018-05-09T13:25:47.339Z,4.07
2018-05-09T13:28:14.866Z,4.05
2018-05-09T13:30:42.297Z,3.87
2018-05-09T13:33:09.745Z,4.28
2018-05-09T13:35:38.077Z,3.55
2018-05-09T13:38:05.517Z,4.32
2018-05-09T13:40:32.972Z,4.15
2018-05-09T13:43:00.433Z,4.47
2018-05-09T13:45:27.889Z,3.62
2018-05-09T13:47:55.345Z,3.92
2018-05-09T13:50:22.813Z,4.30
2018-05-09T13:52:50.509Z,4.05
2018-05-09T13:55:17.965Z,3.92
2018-05-09T13:57:48.231Z,4.18
2018-05-09T14:00:15.729Z,4.03
2018-05-09T14:02:43.264Z,4.50
2018-05-09T14:05:10.723Z,4.62
2018-05-09T14:10:12.172Z,4.05
2018-05-09T14:12:40.461Z,4.32
2018-05-09T14:15:07.921Z,3.92
2018-05-09T14:17:35.380Z,3.58
2018-05-09T14:20:02.842Z,3.97
2018-05-09T14:22:30.299Z,4.50
2018-05-09T14:24:57.755Z,3.67
2018-05-09T14:27:25.284Z,3.97
2018-05-09T14:29:52.641Z,3.70
2018-05-09T14:32:20.163Z,3.55
2018-05-09T14:34:47.557Z,3.92
2018-05-09T14:37:15.013Z,4.40
2018-05-09T14:39:43.215Z,4.22
2018-05-09T14:42:10.668Z,3.80
2018-05-09T14:44:38.117Z,3.58
2018-05-09T14:47:05.585Z,4.65
2018-05-09T14:49:33.247Z,4.40
2018-05-09T14:52:00.704Z,3.95
2018-05-09T14:54:28.234Z,3.85
2018-05-09T14:56:55.633Z,4.65
2018-05-09T14:59:23.078Z,4.18
2018-05-09T15:01:50.532Z,3.90
2018-05-09T15:04:17.976Z,3.90
2018-05-09T15:06:46.196Z,4.37
2018-05-09T15:09:13.642Z,4.12
2018-05-09T15:11:41.080Z,4.18
2018-05-09T15:14:08.586Z,3.97
2018-05-09T15:16:36.017Z,4.53
2018-05-09T15:19:03.464Z,4.45
2018-05-09T15:21:31.696Z,4.32
2018-05-09T15:23:59.137Z,4.40
2018-05-09T15:26:26.637Z,4.12
2018-05-09T15:28:54.128Z,4.18
2018-05-09T15:31:21.575Z,4.30
2018-05-09T15:33:49.815Z,3.95
2018-05-09T15:36:17.330Z,4.22
2018-05-09T15:38:44.852Z,4.50
2018-05-09T15:41:12.225Z,4.37
2018-05-09T15:43:39.678Z,4.20
2018-05-09T15:46:07.140Z,3.58
2018-05-09T15:48:34.581Z,4.00
2018-05-09T15:51:02.020Z,4.80
2018-05-09T15:53:29.476Z,5.05
2018-05-09T15:55:56.927Z,4.70
2018-05-09T15:58:24.401Z,4.95
2018-05-09T16:00:51.929Z,4.35
2018-05-09T16:03:19.296Z,4.07
2018-05-09T16:05:46.752Z,4.30
2018-05-09T16:08:14.189Z,3.83
2018-05-09T16:10:41.662Z,4.17
2018-05-09T16:13:09.138Z,4.57
2018-05-09T16:15:36.597Z,4.37
2018-05-09T16:18:04.061Z,3.93
2018-05-09T16:20:31.515Z,4.53
2018-05-09T16:22:59.045Z,4.57
2018-05-09T16:25:26.506Z,5.47
2018-05-09T16:27:54.140Z,4.73
2018-05-09T16:30:22.019Z,4.80
2018-05-09T16:32:49.481Z,6.83
2018-05-09T16:35:16.946Z,6.53
2018-05-09T16:37:44.377Z,4.57
2018-05-09T16:40:11.831Z,5.67
2018-05-09T16:42:39.261Z,6.43
2018-05-09T16:45:07.493Z,6.33
2018-05-09T16:47:34.953Z,4.73
2018-05-09T16:50:02.431Z,4.03
2018-05-09T16:52:29.890Z,4.53
2018-05-09T16:54:57.534Z,4.50
2018-05-09T16:57:25.189Z,3.93
2018-05-09T16:59:52.653Z,4.80
2018-05-09T17:02:20.108Z,4.33
2018-05-09T17:04:47.564Z,4.43
2018-05-09T17:07:15.136Z,5.37
2018-05-09T17:09:42.614Z,3.70
2018-05-09T17:12:10.825Z,4.27
2018-05-09T17:14:38.351Z,3.80
2018-05-09T17:17:06.545Z,3.80
2018-05-09T17:19:34.002Z,5.17
2018-05-09T17:22:19.052Z,4.00
2018-05-09T17:24:47.331Z,4.27
2018-05-09T17:27:14.749Z,5.30
2018-05-09T17:29:42.178Z,5.10
2018-05-09T17:32:09.693Z,4.17
2018-05-09T17:34:37.898Z,4.47
2018-05-09T17:37:05.396Z,4.50
2018-05-09T17:39:32.854Z,4.47
2018-05-09T17:42:00.300Z,6.13
2018-05-09T17:44:27.744Z,4.30
2018-05-09T17:46:55.260Z,4.20
2018-05-09T17:49:23.459Z,3.80
2018-05-09T17:51:51.677Z,4.00
2018-05-09T17:54:19.126Z,3.67
2018-05-09T17:56:46.577Z,3.17
2018-05-09T17:59:14.022Z,3.60
2018-05-09T18:01:41.461Z,3.50
2018-05-09T18:04:08.949Z,4.23
2018-05-09T18:06:36.427Z,3.60
2018-05-09T18:09:03.878Z,3.50
2018-05-09T18:11:31.341Z,3.63
2018-05-09T18:13:58.901Z,3.40
2018-05-09T18:16:26.362Z,4.03
2018-05-09T18:18:53.821Z,3.67
2018-05-09T18:21:21.289Z,6.10
2018-05-09T18:23:49.514Z,4.20
2018-05-09T18:26:16.962Z,3.90
2018-05-09T18:28:44.408Z,3.50
2018-05-09T18:31:11.852Z,4.23
2018-05-09T18:33:40.070Z,3.87
2018-05-09T18:36:07.516Z,3.30
2018-05-09T18:38:34.966Z,3.93
2018-05-09T18:41:02.414Z,5.07
2018-05-09T18:43:29.856Z,4.80
2018-05-09T18:45:57.314Z,4.13
2018-05-09T18:48:24.769Z,4.37
2018-05-09T18:50:52.220Z,4.23
2018-05-09T18:53:19.672Z,6.13
2018-05-09T18:55:47.883Z,4.23
2018-05-09T18:58:15.323Z,4.50
2018-05-09T19:00:42.753Z,4.43
2018-05-09T19:03:10.971Z,4.10
2018-05-09T19:05:38.422Z,4.33
2018-05-09T19:08:06.643Z,4.03
2018-05-09T19:10:34.068Z,4.40
2018-05-09T19:13:01.529Z,4.80
2018-05-09T19:15:28.957Z,4.50
2018-05-09T19:17:56.407Z,4.73
2018-05-09T19:20:23.840Z,4.00
2018-05-09T19:22:52.067Z,3.93
2018-05-09T19:25:19.499Z,3.93
2018-05-09T19:27:46.952Z,3.87
2018-05-09T19:30:14.558Z,3.73
2018-05-09T19:32:41.991Z,4.37
2018-05-09T19:35:09.439Z,4.40
2018-05-09T19:37:36.919Z,4.23
2018-05-09T19:40:04.358Z,4.60
2018-05-09T19:42:31.817Z,4.07
2018-05-09T19:44:59.265Z,4.30
2018-05-09T19:47:26.730Z,4.37
2018-05-09T19:49:54.189Z,4.20
2018-05-09T19:52:21.645Z,4.80
2018-05-09T19:54:49.090Z,4.10
2018-05-09T19:57:16.560Z,4.40
2018-05-09T19:59:44.028Z,4.30
2018-05-09T20:02:11.464Z,4.83
2018-05-09T20:04:38.927Z,4.33
2018-05-09T20:07:06.376Z,4.13
2018-05-09T20:09:33.837Z,4.93
2018-05-09T20:12:01.305Z,4.67
2018-05-09T20:14:28.733Z,4.73
2018-05-09T20:16:56.203Z,4.63
2018-05-09T20:19:23.661Z,5.00
2018-05-09T20:21:51.121Z,4.53
2018-05-09T20:24:18.565Z,5.00
2018-05-09T20:26:46.026Z,5.23
2018-05-09T20:29:13.506Z,4.93
2018-05-09T20:31:56.680Z,4.73
2018-05-09T20:34:24.907Z,4.53
2018-05-09T20:36:52.449Z,4.47
2018-05-09T20:39:19.894Z,4.60
2018-05-09T20:41:47.340Z,4.63
2018-05-09T20:44:14.793Z,4.57
2018-05-09T20:46:42.249Z,4.80
2018-05-09T20:49:10.465Z,4.70
2018-05-09T20:51:49.560Z,4.40
2018-05-09T20:54:17.025Z,5.37
2018-05-09T20:56:44.465Z,3.83
2018-05-09T20:59:11.922Z,4.50
2018-05-09T21:01:45.958Z,4.63
2018-05-09T21:04:13.427Z,4.83
2018-05-09T21:06:40.873Z,4.33
2018-05-09T21:09:08.352Z,4.30
2018-05-09T21:11:35.786Z,4.40
2018-05-09T21:14:03.245Z,4.20
2018-05-09T21:16:30.691Z,4.10
2018-05-09T21:18:58.893Z,3.90
2018-05-09T21:21:26.355Z,3.60
2018-05-09T21:23:53.788Z,4.20
2018-05-09T21:26:21.267Z,4.30
2018-05-09T21:28:48.722Z,3.90
2018-05-09T21:31:16.226Z,3.77
2018-05-09T21:33:43.638Z,4.07
2018-05-09T21:36:11.648Z,3.83
2018-05-09T21:38:39.861Z,3.60
2018-05-09T21:41:07.315Z,3.47
2018-05-09T21:43:34.791Z,3.57
2018-05-09T21:46:02.271Z,3.40
2018-05-09T21:48:29.697Z,3.60
2018-05-09T21:50:57.154Z,4.23
2018-05-09T21:53:24.602Z,3.40
2018-05-09T21:55:52.069Z,3.73
2018-05-09T21:58:19.502Z,3.70
2018-05-09T22:00:46.955Z,3.50
2018-05-09T22:03:14.392Z,3.63
2018-05-09T22:05:41.829Z,3.83
2018-05-09T22:08:09.281Z,3.57
2018-05-09T22:10:36.728Z,3.70
2018-05-09T22:13:04.962Z,3.53
2018-05-09T22:15:32.385Z,3.40
2018-05-09T22:17:59.833Z,4.20
2018-05-09T22:20:27.285Z,3.97
2018-05-09T22:22:54.741Z,3.40
2018-05-09T22:25:22.168Z,3.47
2018-05-09T22:27:49.677Z,3.90
2018-05-09T22:30:17.101Z,4.10
2018-05-09T22:32:44.553Z,4.03
2018-05-09T22:35:11.996Z,4.03
2018-05-09T22:37:39.485Z,3.70
2018-05-09T22:40:06.922Z,3.90
2018-05-09T22:42:34.364Z,4.13
2018-05-09T22:45:01.812Z,3.73
2018-05-09T22:47:29.246Z,4.27
2018-05-09T22:49:57.457Z,4.70
2018-05-09T22:52:24.909Z,4.27
2018-05-09T22:54:52.411Z,4.00
2018-05-09T22:57:19.825Z,3.90
2018-05-09T22:59:47.252Z,3.80
2018-05-09T23:02:18.957Z,3.77
2018-05-09T23:04:46.381Z,3.70
2018-05-09T23:07:13.836Z,3.97
2018-05-09T23:09:41.292Z,3.80
2018-05-09T23:12:08.736Z,3.57
2018-05-09T23:14:36.956Z,4.37
2018-05-09T23:17:04.418Z,3.80
2018-05-09T23:19:31.864Z,3.97
2018-05-09T23:21:59.333Z,3.73
2018-05-09T23:24:26.812Z,4.00
2018-05-09T23:26:54.267Z,4.27
2018-05-09T23:29:21.694Z,3.97
2018-05-09T23:31:49.138Z,4.20
2018-05-09T23:34:16.591Z,3.90
2018-05-09T23:36:44.025Z,4.37
2018-05-09T23:39:12.238Z,4.20
2018-05-09T23:41:39.681Z,4.00
2018-05-09T23:44:07.136Z,4.17
2018-05-09T23:46:34.572Z,3.90
2018-05-09T23:49:02.052Z,4.20
2018-05-09T23:51:29.490Z,4.20
2018-05-09T23:53:56.936Z,3.67
2018-05-09T23:56:24.367Z,4.10
2018-05-09T23:58:51.808Z,4.10
